Time;durP1;ratioP1;P1;durP2;ratioP2;P2;SDS_P1;SDS_P2;PMS_P1;PMS_P2;Temp;Humidity;BMP_temperature;BMP_pressure;BME280_temperature;BME280_humidity;BME280_pressure;Samples;Min_cycle;Max_cycle;Signal;HPM_P1;HPM_P2
2022/05/27 00:02:40;;;;;;;1.65;0.90;;;17.10;99.90;;;;;;5044048;28;20577;-88
2022/05/27 00:05:30;;;;;;;2.28;1.00;;;18.20;99.90;;;;;;5044593;28;20045;-87
2022/05/27 00:08:28;;;;;;;1.92;1.10;;;17.40;99.90;;;;;;5044779;28;20048;-87
2022/05/27 00:11:40;;;;;;;;;;;;;;;;;;;;;
2022/05/27 00:14:18;;;;;;;3.35;1.33;;;17.70;99.90;;;;;;5064011;28;42984;-87
2022/05/27 00:17:29;;;;;;;2.83;1.25;;;17.70;99.90;;;;;;5062869;28;21549;-87
2022/05/27 00:20:27;;;;;;;6.70;1.98;;;17.60;99.90;;;;;;5061645;28;20065;-88
2022/05/27 00:23:17;;;;;;;1.23;0.90;;;17.70;99.90;;;;;;5041388;28;20049;-88
2022/05/27 00:26:15;;;;;;;3.45;2.00;;;17.40;99.90;;;;;;5061707;28;20106;-88
2022/05/27 00:29:05;;;;;;;2.15;1.73;;;17.60;99.90;;;;;;5060201;28;20535;-88
2022/05/27 00:32:01;;;;;;;;;;;;;;;;;;;;;
2022/05/27 00:34:42;;;;;;;2.45;0.95;;;17.50;99.90;;;;;;5069672;28;42198;-88
2022/05/27 00:37:40;;;;;;;2.47;0.90;;;17.40;99.90;;;;;;5066700;28;20048;-87
2022/05/27 00:40:34;;;;;;;2.20;1.17;;;17.30;99.90;;;;;;5063826;28;20059;-86
2022/05/27 00:43:18;;;;;;;3.33;1.20;;;17.30;99.90;;;;;;5063536;28;20527;-86
2022/05/27 00:45:55;;;;;;;3.85;1.33;;;17.30;99.90;;;;;;5065600;28;20040;-88
2022/05/27 00:48:51;;;;;;;1.60;0.93;;;17.20;99.90;;;;;;5061759;28;20049;-86
2022/05/27 00:52:13;;;;;;;2.25;1.10;;;17.20;99.90;;;;;;5079909;28;20037;-86
2022/05/27 00:58:02;;;;;;;4.07;1.02;;;17.20;99.90;;;;;;5062999;28;20044;-87
2022/05/27 01:00:56;;;;;;;2.72;0.95;;;17.20;99.90;;;;;;5060599;28;20085;-87
2022/05/27 01:06:58;;;;;;;1.85;1.20;;;17.10;99.90;;;;;;5061882;28;20588;-87
2022/05/27 01:09:39;;;;;;;1.92;0.98;;;17.10;99.90;;;;;;5045133;28;20063;-87
2022/05/27 01:12:45;;;;;;;3.28;1.83;;;17.10;99.90;;;;;;5063170;28;20075;-87
2022/05/27 01:15:54;;;;;;;1.42;0.90;;;17.00;99.90;;;;;;5062011;28;20629;-87
2022/05/27 01:21:51;;;;;;;2.08;1.52;;;17.20;99.90;;;;;;5062405;28;20049;-87
2022/05/27 01:24:35;;;;;;;4.63;1.27;;;17.00;99.90;;;;;;5061147;28;20085;-87
2022/05/27 01:30:28;;;;;;;1.85;1.08;;;16.90;99.90;;;;;;5066354;28;20104;-86
2022/05/27 01:33:56;;;;;;;1.77;1.00;;;16.90;99.90;;;;;;5027416;28;20080;-87
2022/05/27 01:37:06;;;;;;;1.90;1.10;;;17.10;99.90;;;;;;5010455;28;20088;-87
2022/05/27 01:40:08;;;;;;;1.88;1.15;;;17.20;99.90;;;;;;4958100;28;20045;-87
2022/05/27 01:43:21;;;;;;;4.78;1.08;;;17.20;99.90;;;;;;5026262;28;20053;-86
2022/05/27 01:49:50;;;;;;;4.22;0.90;;;17.50;99.90;;;;;;5025353;28;20049;-88
2022/05/27 01:53:01;;;;;;;1.85;1.15;;;17.40;99.90;;;;;;5038224;28;20098;-87
2022/05/27 01:56:03;;;;;;;;;;;;;;;;;;;;;
2022/05/27 01:59:08;;;;;;;1.30;1.00;;;16.80;99.90;;;;;;5054109;28;41817;-87
2022/05/27 02:02:06;;;;;;;3.03;1.10;;;17.20;99.90;;;;;;5019411;28;20056;-87
2022/05/27 02:05:03;;;;;;;1.60;0.75;;;17.20;99.90;;;;;;5057115;28;20053;-87
2022/05/27 02:08:15;;;;;;;3.38;1.40;;;17.40;99.90;;;;;;5065993;28;20203;-87
2022/05/27 02:11:15;;;;;;;;;;;;;;;;;;;;;
2022/05/27 02:14:16;;;;;;;2.15;1.30;;;17.20;99.90;;;;;;5067984;28;44292;-87
2022/05/27 02:17:31;;;;;;;;;;;;;;;;;;;;;
2022/05/27 02:20:36;;;;;;;4.13;1.17;;;17.20;99.90;;;;;;5065384;28;39933;-86
2022/05/27 02:23:35;;;;;;;5.57;1.13;;;17.00;99.90;;;;;;5048794;28;20140;-86
2022/05/27 02:26:11;;;;;;;5.15;1.35;;;17.20;99.90;;;;;;5064697;28;20562;-87
2022/05/27 02:28:57;;;;;;;2.75;1.30;;;17.30;99.90;;;;;;5063332;28;20048;-86
2022/05/27 02:35:37;;;;;;;;;;;;;;;;;;;;;
2022/05/27 02:38:31;;;;;;;5.28;1.48;;;17.20;99.90;;;;;;5066167;28;45763;-87
2022/05/27 02:44:49;;;;;;;1.83;1.20;;;17.20;99.90;;;;;;5059045;28;20512;-87
2022/05/27 02:48:18;;;;;;;4.82;1.60;;;17.20;99.90;;;;;;5058975;28;20037;-87
2022/05/27 02:51:49;;;;;;;2.50;1.17;;;17.10;99.90;;;;;;4993150;28;20063;-87
2022/05/27 02:54:54;;;;;;;3.85;1.65;;;17.10;99.90;;;;;;5032954;28;20048;-87
2022/05/27 02:58:21;;;;;;;;;;;;;;;;;;;;;
2022/05/27 03:01:36;;;;;;;4.10;2.35;;;17.40;99.90;;;;;;5011963;28;39482;-88
2022/05/27 03:04:12;;;;;;;4.18;1.15;;;16.90;99.90;;;;;;4996219;28;20221;-87
2022/05/27 03:07:20;;;;;;;2.83;1.40;;;16.90;99.90;;;;;;5013001;28;20120;-87
2022/05/27 03:10:41;;;;;;;6.50;1.40;;;17.10;99.90;;;;;;5011568;28;20140;-87
2022/05/27 03:13:54;;;;;;;3.53;1.52;;;17.00;99.90;;;;;;5041258;28;20045;-88
2022/05/27 03:16:45;;;;;;;2.45;1.30;;;17.00;99.90;;;;;;5041033;28;20060;-88
2022/05/27 03:19:48;;;;;;;2.42;1.30;;;16.90;99.90;;;;;;5028171;28;20096;-87
2022/05/27 03:26:03;;;;;;;4.07;1.20;;;17.00;99.90;;;;;;5041243;28;20972;-86
2022/05/27 03:29:31;;;;;;;3.15;1.13;;;17.20;99.90;;;;;;5026665;28;20060;-87
2022/05/27 03:35:38;;;;;;;2.83;1.42;;;17.00;99.90;;;;;;5064535;28;20518;-85
2022/05/27 03:38:39;;;;;;;6.25;1.70;;;16.90;99.90;;;;;;5067291;28;20048;-86
2022/05/27 03:41:55;;;;;;;7.28;2.25;;;16.80;99.90;;;;;;5082300;28;20130;-88
2022/05/27 03:45:05;;;;;;;3.88;1.58;;;16.90;99.90;;;;;;5066323;28;20068;-86
2022/05/27 03:48:01;;;;;;;3.60;1.55;;;17.10;99.90;;;;;;5050308;28;20102;-86
2022/05/27 03:50:38;;;;;;;3.13;1.90;;;16.90;99.90;;;;;;5082745;27;20056;-88
2022/05/27 03:56:42;;;;;;;;;;;;;;;;;;;;;
2022/05/27 03:59:46;;;;;;;6.25;1.83;;;16.90;99.90;;;;;;5066884;28;39532;-87
2022/05/27 04:02:19;;;;;;;4.30;2.55;;;16.90;99.90;;;;;;5066552;28;20959;-86
2022/05/27 04:08:23;;;;;;;;;;;;;;;;;;;;;
2022/05/27 04:11:27;;;;;;;5.90;2.33;;;16.80;99.90;;;;;;5064689;28;39882;-88
2022/05/27 04:14:10;;;;;;;7.35;2.75;;;16.80;99.90;;;;;;5068288;28;20056;-87
2022/05/27 04:16:48;;;;;;;6.55;1.80;;;16.50;99.90;;;;;;5046183;28;20059;-87
2022/05/27 04:19:45;;;;;;;9.90;1.83;;;16.80;99.90;;;;;;5067843;28;20048;-87
2022/05/27 04:22:24;;;;;;;3.17;1.63;;;16.80;99.90;;;;;;5064716;28;20044;-86
2022/05/27 04:25:03;;;;;;;;;;;;;;;;;;;;;
2022/05/27 04:31:09;;;;;;;3.10;1.70;;;16.80;99.90;;;;;;5051353;28;20049;-87
2022/05/27 04:33:52;;;;;;;5.82;1.67;;;17.10;99.90;;;;;;5065225;28;20049;-87
2022/05/27 04:36:54;;;;;;;;;;;;;;;;;;;;;
2022/05/27 04:39:26;;;;;;;;;;;16.90;99.90;;;;;;5060798;28;43693;-86
2022/05/27 04:42:05;;;;;;;7.77;1.50;;;16.70;99.90;;;;;;5047517;28;19920;-87
2022/05/27 04:44:47;;;;;;;4.32;2.22;;;16.70;99.90;;;;;;5039166;28;20044;-86
2022/05/27 04:47:38;;;;;;;4.43;2.55;;;16.80;99.90;;;;;;5064052;28;20056;-87
2022/05/27 04:50:25;;;;;;;6.93;1.92;;;16.50;99.90;;;;;;5055993;28;20619;-86
2022/05/27 04:53:09;;;;;;;4.15;1.98;;;16.90;99.90;;;;;;5059842;28;20229;-87
2022/05/27 04:56:02;;;;;;;6.45;1.73;;;16.80;99.90;;;;;;5044018;28;20073;-86
2022/05/27 04:58:45;;;;;;;3.17;1.58;;;17.50;99.90;;;;;;5061610;28;20049;-85
2022/05/27 05:01:36;;;;;;;4.40;2.05;;;16.60;99.90;;;;;;5060187;28;20096;-83
2022/05/27 05:04:21;;;;;;;2.10;1.50;;;16.50;99.90;;;;;;5046013;28;21309;-84
2022/05/27 05:07:08;;;;;;;2.83;1.80;;;16.60;99.90;;;;;;5044059;28;20174;-84
2022/05/27 05:09:50;;;;;;;4.82;1.60;;;16.60;99.90;;;;;;5028638;28;20376;-83
2022/05/27 05:13:02;;;;;;;6.28;2.03;;;16.60;99.90;;;;;;5026802;28;20057;-84
2022/05/27 05:18:52;;;;;;;3.70;1.67;;;16.60;99.90;;;;;;5061015;28;20123;-85
2022/05/27 05:21:31;;;;;;;7.78;1.85;;;16.60;99.90;;;;;;5048884;28;20514;-83
2022/05/27 05:24:32;;;;;;;5.72;1.73;;;16.50;99.90;;;;;;5059695;28;20059;-83
2022/05/27 05:27:23;;;;;;;;;;;;;;;;;;;;;
2022/05/27 05:29:51;;;;;;;;;;;16.70;99.90;;;;;;5064253;28;39773;-83
2022/05/27 05:32:23;;;;;;;4.82;1.40;;;16.80;99.90;;;;;;5063037;28;20018;-82
2022/05/27 05:34:59;;;;;;;;;;;16.70;99.90;;;;;;5064816;28;20083;-83
2022/05/27 05:37:44;;;;;;;5.95;2.40;;;16.70;99.90;;;;;;5062013;28;19970;-84
2022/05/27 05:40:21;;;;;;;6.00;1.90;;;16.70;99.90;;;;;;5065285;27;20055;-83
2022/05/27 05:43:17;;;;;;;8.25;2.05;;;16.80;99.90;;;;;;5048044;28;20036;-83
2022/05/27 05:46:04;;;;;;;2.95;1.40;;;16.80;99.90;;;;;;5064768;28;20086;-84
2022/05/27 05:49:08;;;;;;;6.20;2.05;;;16.40;99.90;;;;;;5064266;28;20107;-83
2022/05/27 05:51:52;;;;;;;3.53;1.40;;;16.70;99.90;;;;;;5078548;28;20847;-84
2022/05/27 05:54:39;;;;;;;4.57;1.90;;;16.70;99.90;;;;;;5058422;28;20665;-83
2022/05/27 05:57:29;;;;;;;8.15;1.98;;;17.90;99.90;;;;;;5062291;28;20045;-87
2022/05/27 06:00:30;;;;;;;2.63;1.30;;;16.70;99.90;;;;;;5063041;28;20037;-86
2022/05/27 06:03:30;;;;;;;4.38;1.60;;;16.70;99.90;;;;;;5079950;27;20507;-86
2022/05/27 06:06:54;;;;;;;;;;;;;;;;;;;;;
2022/05/27 06:10:01;;;;;;;5.38;1.83;;;16.80;99.90;;;;;;5001668;28;43316;-87
2022/05/27 06:13:35;;;;;;;;;;;;;;;;;;;;;
2022/05/27 06:17:05;;;;;;;3.90;1.58;;;16.90;99.90;;;;;;4991903;28;40748;-85
2022/05/27 06:19:43;;;;;;;2.38;1.45;;;16.90;99.90;;;;;;4913930;28;20048;-86
2022/05/27 06:23:00;;;;;;;4.60;1.70;;;16.80;99.90;;;;;;4966895;28;20055;-86
2022/05/27 06:25:59;;;;;;;4.60;1.83;;;16.60;99.90;;;;;;4979946;28;20051;-85
2022/05/27 06:35:09;;;;;;;5.32;1.75;;;17.20;99.90;;;;;;4983291;28;20035;-82
2022/05/27 06:37:54;;;;;;;4.93;1.92;;;17.20;99.90;;;;;;4975565;28;20121;-89
2022/05/27 06:40:58;;;;;;;2.78;1.38;;;17.30;99.90;;;;;;4981923;28;20242;-84
2022/05/27 06:43:46;;;;;;;2.28;1.20;;;17.20;99.90;;;;;;4981512;28;20886;-83
2022/05/27 06:46:22;;;;;;;1.65;1.02;;;17.30;99.90;;;;;;5001962;28;20107;-84
2022/05/27 06:49:21;;;;;;;1.67;1.02;;;17.40;99.90;;;;;;5004273;28;20064;-83
2022/05/27 06:52:15;;;;;;;2.05;1.30;;;17.50;99.90;;;;;;5006015;28;20042;-85
2022/05/27 06:54:55;;;;;;;4.40;1.40;;;17.50;99.90;;;;;;5005206;28;20598;-83
2022/05/27 06:57:50;;;;;;;1.27;0.90;;;17.70;99.90;;;;;;5004596;28;20050;-86
2022/05/27 07:00:42;;;;;;;4.65;1.33;;;17.80;99.90;;;;;;5002552;28;21000;-86
2022/05/27 07:03:14;;;;;;;2.47;1.00;;;17.80;99.90;;;;;;4993754;28;20061;-84
2022/05/27 07:05:40;;;;;;;2.45;1.23;;;17.70;99.90;;;;;;5003217;28;20092;-83
2022/05/27 07:08:10;;;;;;;2.53;1.42;;;17.80;99.90;;;;;;5005318;28;21017;-83
2022/05/27 07:10:38;;;;;;;2.38;1.00;;;17.80;99.90;;;;;;5007450;28;20053;-82
2022/05/27 07:13:10;;;;;;;4.85;1.35;;;18.00;99.90;;;;;;5059781;28;20475;-82
2022/05/27 07:15:36;;;;;;;4.78;1.60;;;18.10;99.90;;;;;;5060855;28;20079;-81
2022/05/27 07:18:09;;;;;;;2.78;1.23;;;18.10;99.90;;;;;;5064938;28;20127;-83
2022/05/27 07:20:41;;;;;;;2.78;1.50;;;18.30;99.90;;;;;;5079482;27;20056;-84
2022/05/27 07:23:08;;;;;;;2.05;1.45;;;18.20;99.90;;;;;;5076347;28;20037;-82
2022/05/27 07:25:44;;;;;;;3.95;1.63;;;18.30;99.90;;;;;;5060218;28;20056;-81
2022/05/27 07:28:13;;;;;;;1.50;1.10;;;18.30;99.90;;;;;;5064203;28;20098;-80
2022/05/27 07:30:42;;;;;;;2.53;1.00;;;18.40;99.90;;;;;;5043465;28;20036;-81
2022/05/27 07:33:11;;;;;;;2.60;1.17;;;18.40;99.90;;;;;;5061412;28;20041;-81
2022/05/27 07:35:42;;;;;;;2.67;1.40;;;18.40;99.90;;;;;;5063824;28;20070;-82
2022/05/27 07:38:24;;;;;;;2.22;1.33;;;18.40;99.90;;;;;;5063656;28;20055;-81
2022/05/27 07:40:59;;;;;;;;;;;18.50;99.90;;;;;;5062635;28;20037;-80
2022/05/27 07:43:30;;;;;;;4.45;1.70;;;18.60;99.90;;;;;;5061081;28;19927;-81
2022/05/27 07:46:02;;;;;;;2.28;1.10;;;18.60;99.90;;;;;;5060886;28;20094;-81
2022/05/27 07:48:28;;;;;;;2.05;1.30;;;18.70;99.90;;;;;;5063204;28;20083;-81
2022/05/27 07:50:57;;;;;;;2.42;1.50;;;18.70;99.90;;;;;;5065780;28;20060;-81
2022/05/27 07:53:25;;;;;;;2.45;1.63;;;18.80;99.90;;;;;;5060483;28;20175;-80
2022/05/27 07:55:54;;;;;;;2.92;1.08;;;18.80;99.90;;;;;;5059054;28;20049;-81
2022/05/27 07:58:22;;;;;;;3.17;1.08;;;18.90;99.90;;;;;;5061205;28;20057;-81
2022/05/27 08:00:49;;;;;;;4.10;1.20;;;18.60;99.90;;;;;;5044808;28;20040;-81
2022/05/27 08:03:25;;;;;;;2.50;1.15;;;18.60;99.90;;;;;;5059925;28;20059;-80
2022/05/27 08:05:55;;;;;;;3.33;1.30;;;18.60;99.90;;;;;;5062950;28;20091;-81
2022/05/27 08:08:27;;;;;;;3.85;1.25;;;18.60;99.90;;;;;;5060429;28;20056;-81
2022/05/27 08:10:58;;;;;;;2.80;1.10;;;18.60;99.90;;;;;;5061596;28;20044;-80
2022/05/27 08:13:25;;;;;;;2.45;1.33;;;18.60;99.90;;;;;;5065492;28;20053;-81
2022/05/27 08:15:52;;;;;;;1.70;1.00;;;18.70;99.90;;;;;;5061474;28;20544;-81
2022/05/27 08:18:25;;;;;;;3.50;1.23;;;18.70;99.90;;;;;;5066863;28;20052;-80
2022/05/27 08:20:52;;;;;;;3.25;1.08;;;18.00;99.90;;;;;;5064700;28;20052;-81
2022/05/27 08:23:34;;;;;;;2.90;1.05;;;18.80;99.90;;;;;;5059545;28;20080;-80
2022/05/27 08:26:01;;;;;;;5.88;1.60;;;18.80;99.90;;;;;;5043825;28;20131;-81
2022/05/27 08:28:35;;;;;;;4.40;1.10;;;18.80;99.90;;;;;;5061338;28;20041;-81
2022/05/27 08:31:04;;;;;;;1.65;1.00;;;19.00;99.90;;;;;;5063100;28;20041;-81
2022/05/27 08:38:01;;;;;;;2.72;1.00;;;19.00;99.90;;;;;;5063650;28;20049;-81
2022/05/27 08:39:16;;;;;;;4.50;1.35;;;19.20;99.90;;;;;;5062160;28;20045;-81
2022/05/27 08:42:06;;;;;;;2.53;1.85;;;19.50;99.90;;;;;;5061901;28;20049;-82
2022/05/27 08:45:17;;;;;;;2.10;1.15;;;18.40;99.90;;;;;;5064898;28;20052;-82
2022/05/27 08:48:04;;;;;;;1.90;0.80;;;19.60;99.90;;;;;;5054738;28;20052;-82
2022/05/27 08:50:45;;;;;;;1.80;0.98;;;19.60;99.90;;;;;;5067189;28;20032;-82
2022/05/27 08:53:38;;;;;;;2.90;0.93;;;19.60;99.90;;;;;;5067090;28;20052;-82
2022/05/27 08:59:45;;;;;;;4.43;0.95;;;19.60;99.90;;;;;;5068430;28;20140;-82
2022/05/27 09:02:39;;;;;;;3.00;1.10;;;19.50;99.90;;;;;;5052001;28;20048;-81
2022/05/27 09:05:29;;;;;;;1.73;1.40;;;19.60;99.90;;;;;;5050446;28;20056;-82
2022/05/27 09:08:09;;;;;;;1.73;0.93;;;19.60;99.90;;;;;;5082035;28;20060;-82
2022/05/27 09:11:11;;;;;;;4.15;0.90;;;19.90;99.90;;;;;;5062650;28;20068;-82
2022/05/27 09:14:01;;;;;;;2.45;0.85;;;20.10;99.90;;;;;;5048279;28;20569;-82
2022/05/27 09:16:52;;;;;;;2.17;1.13;;;19.80;99.90;;;;;;5049884;28;20048;-82
2022/05/27 09:19:58;;;;;;;1.20;1.10;;;20.30;99.90;;;;;;5050229;28;20045;-82
2022/05/27 09:22:48;;;;;;;2.17;1.10;;;20.00;99.90;;;;;;5064295;28;20073;-82
2022/05/27 09:25:35;;;;;;;5.20;1.77;;;19.80;99.90;;;;;;5079615;28;20076;-82
2022/05/27 09:28:35;;;;;;;1.48;0.98;;;19.80;99.90;;;;;;5048590;28;20539;-82
2022/05/27 09:31:05;;;;;;;2.13;1.63;;;19.70;99.90;;;;;;5047554;28;20049;-83
2022/05/27 09:33:41;;;;;;;1.98;1.48;;;19.70;99.90;;;;;;5064529;28;20050;-82
2022/05/27 09:36:22;;;;;;;1.73;1.20;;;19.70;99.90;;;;;;5048749;28;20691;-83
2022/05/27 09:39:03;;;;;;;1.55;0.95;;;19.80;99.90;;;;;;5063408;28;20045;-82
2022/05/27 09:41:51;;;;;;;2.13;1.17;;;19.70;99.90;;;;;;5065554;28;20091;-82
2022/05/27 09:44:26;;;;;;;0.90;0.90;;;19.60;99.90;;;;;;5067497;28;20040;-82
2022/05/27 09:46:55;;;;;;;2.78;1.10;;;19.60;99.90;;;;;;5065447;28;20759;-82
2022/05/27 09:49:23;;;;;;;2.53;0.93;;;19.60;99.90;;;;;;5049438;28;20507;-82
2022/05/27 09:51:52;;;;;;;1.85;0.80;;;19.60;99.90;;;;;;5066577;28;20037;-82
2022/05/27 09:54:51;;;;;;;2.03;1.15;;;19.60;99.90;;;;;;5064047;28;20037;-82
2022/05/27 09:57:33;;;;;;;2.67;0.93;;;19.80;99.90;;;;;;5065533;28;20075;-82
2022/05/27 10:00:16;;;;;;;1.77;1.20;;;19.50;99.90;;;;;;5064820;28;20037;-82
2022/05/27 10:02:51;;;;;;;2.28;1.00;;;19.70;99.90;;;;;;5080272;27;20041;-82
2022/05/27 10:05:28;;;;;;;3.83;0.88;;;19.80;99.90;;;;;;5063057;28;22269;-82
2022/05/27 10:08:03;;;;;;;2.30;1.20;;;19.90;99.90;;;;;;5063620;28;20051;-83
2022/05/27 10:10:37;;;;;;;2.33;1.00;;;20.10;99.90;;;;;;5062479;28;20040;-81
2022/05/27 10:13:30;;;;;;;1.15;0.60;;;20.30;99.90;;;;;;5046990;28;20056;-81
2022/05/27 10:16:05;;;;;;;1.00;0.73;;;20.50;99.90;;;;;;5047022;28;20044;-80
2022/05/27 10:18:33;;;;;;;1.10;0.65;;;20.70;99.90;;;;;;5062998;28;20045;-84
2022/05/27 10:21:20;;;;;;;1.13;0.65;;;21.00;99.90;;;;;;5064281;28;20049;-84
2022/05/27 10:27:23;;;;;;;1.98;0.90;;;20.90;99.90;;;;;;5059472;28;20044;-78
2022/05/27 10:29:58;;;;;;;1.45;1.00;;;21.00;99.90;;;;;;5067635;28;20098;-76
2022/05/27 10:32:38;;;;;;;0.75;0.75;;;21.10;99.90;;;;;;5057582;28;20052;-79
2022/05/27 10:35:12;;;;;;;0.85;0.60;;;21.30;99.90;;;;;;5065775;28;20304;-78
2022/05/27 10:37:50;;;;;;;1.30;0.63;;;21.20;99.90;;;;;;5075232;28;20175;-82
2022/05/27 10:40:37;;;;;;;1.17;0.70;;;21.40;99.90;;;;;;5061298;28;20056;-77
2022/05/27 10:43:15;;;;;;;3.03;1.00;;;21.40;99.90;;;;;;5039196;28;20048;-78
2022/05/27 10:45:47;;;;;;;0.80;0.70;;;21.20;99.90;;;;;;5066933;28;20033;-78
2022/05/27 10:48:13;;;;;;;0.85;0.50;;;21.10;99.90;;;;;;5038556;28;20126;-78
2022/05/27 10:51:08;;;;;;;2.00;0.75;;;20.80;99.90;;;;;;5053187;28;20061;-77
2022/05/27 10:54:09;;;;;;;1.40;1.20;;;21.00;99.90;;;;;;5044381;28;20837;-78
2022/05/27 11:03:18;;;;;;;0.60;0.60;;;20.90;99.90;;;;;;5052408;28;20759;-77
2022/05/27 11:05:53;;;;;;;0.57;0.57;;;20.90;99.90;;;;;;5070169;27;20047;-77
2022/05/27 11:08:27;;;;;;;0.82;0.60;;;20.90;99.90;;;;;;5056525;28;20037;-77
2022/05/27 11:11:26;;;;;;;0.63;0.40;;;20.90;99.90;;;;;;5057969;28;20047;-77
2022/05/27 11:17:21;;;;;;;1.23;0.35;;;21.10;99.90;;;;;;5058219;28;20044;-77
2022/05/27 11:20:18;;;;;;;3.03;0.82;;;21.20;99.90;;;;;;5042618;28;20051;-79
2022/05/27 11:22:59;;;;;;;0.77;0.73;;;21.30;99.90;;;;;;5070175;28;20043;-78
2022/05/27 11:25:32;;;;;;;1.85;0.55;;;21.20;99.90;;;;;;5059142;28;20049;-78
2022/05/27 11:28:37;;;;;;;0.65;0.50;;;21.30;99.90;;;;;;5056543;28;20535;-77
2022/05/27 11:31:31;;;;;;;1.08;0.77;;;21.50;99.90;;;;;;5071370;27;20041;-78
2022/05/27 11:33:57;;;;;;;0.50;0.50;;;21.60;99.90;;;;;;5053679;28;20049;-83
2022/05/27 11:36:45;;;;;;;0.93;0.73;;;21.40;99.90;;;;;;5049645;28;23016;-78
2022/05/27 11:39:14;;;;;;;1.55;0.90;;;21.30;99.90;;;;;;5058283;28;20163;-85
2022/05/27 11:42:17;;;;;;;1.00;0.60;;;21.50;99.90;;;;;;5054278;28;20044;-80
2022/05/27 11:45:08;;;;;;;1.15;0.75;;;21.70;99.90;;;;;;5057371;28;20624;-82
2022/05/27 11:47:58;;;;;;;0.70;0.63;;;21.70;99.90;;;;;;5054381;28;20063;-83
2022/05/27 11:50:49;;;;;;;0.60;0.57;;;21.80;99.90;;;;;;5057300;28;20270;-80
2022/05/27 11:53:21;;;;;;;0.50;0.43;;;21.80;99.90;;;;;;5058070;28;20046;-82
2022/05/27 11:56:14;;;;;;;1.05;0.88;;;21.70;99.90;;;;;;5066786;28;20448;-84
2022/05/27 11:59:10;;;;;;;0.75;0.50;;;21.60;99.90;;;;;;5068137;28;20048;-83
2022/05/27 12:02:20;;;;;;;0.50;0.50;;;21.40;99.90;;;;;;5062090;28;20598;-80
2022/05/27 12:04:57;;;;;;;0.88;0.80;;;21.50;99.90;;;;;;5061972;28;20037;-81
2022/05/27 12:07:42;;;;;;;1.52;0.98;;;21.60;99.90;;;;;;5061158;28;20039;-80
2022/05/27 12:10:20;;;;;;;1.00;0.60;;;21.70;99.90;;;;;;5050484;28;20102;-82
2022/05/27 12:12:52;;;;;;;1.00;0.80;;;21.90;99.90;;;;;;5049883;28;20584;-80
2022/05/27 12:15:36;;;;;;;1.02;0.85;;;22.10;99.90;;;;;;5065672;28;20044;-80
2022/05/27 12:18:07;;;;;;;0.70;0.52;;;22.30;99.90;;;;;;5065909;28;20043;-81
2022/05/27 12:20:36;;;;;;;0.50;0.50;;;22.60;99.90;;;;;;5069080;28;20043;-81
2022/05/27 12:23:06;;;;;;;3.17;0.93;;;22.80;99.90;;;;;;5049702;28;20067;-81
2022/05/27 12:25:57;;;;;;;2.45;1.55;;;22.80;99.90;;;;;;5068620;28;21121;-79
2022/05/27 12:28:29;;;;;;;0.90;0.80;;;22.60;99.90;;;;;;5067049;28;20099;-80
2022/05/27 12:30:56;;;;;;;0.98;0.70;;;22.60;99.90;;;;;;5058837;28;20191;-81
2022/05/27 12:33:25;;;;;;;1.48;1.23;;;22.60;99.90;;;;;;5058567;28;20736;-78
2022/05/27 12:35:54;;;;;;;0.57;0.50;;;22.70;99.90;;;;;;5063173;28;20153;-79
2022/05/27 12:38:26;;;;;;;2.90;0.90;;;22.90;99.90;;;;;;5080607;28;20139;-79
2022/05/27 12:41:00;;;;;;;1.20;0.75;;;23.00;99.90;;;;;;5060953;28;20276;-79
2022/05/27 12:43:39;;;;;;;2.22;0.70;;;22.90;99.90;;;;;;5057429;28;20123;-79
2022/05/27 12:46:04;;;;;;;2.90;0.82;;;22.70;99.90;;;;;;5061943;28;20040;-79
2022/05/27 12:48:37;;;;;;;1.10;0.70;;;22.50;99.90;;;;;;5062443;28;20186;-79
2022/05/27 12:51:07;;;;;;;0.90;0.55;;;22.50;99.90;;;;;;5061531;28;20527;-79
2022/05/27 12:53:48;;;;;;;1.38;0.73;;;22.40;99.90;;;;;;5063208;28;20074;-79
2022/05/27 13:02:21;;;;;;;2.22;1.67;;;21.80;99.80;;;;;;5063094;28;20044;-78
2022/05/27 13:05:01;;;;;;;1.58;0.93;;;21.70;99.90;;;;;;5063913;28;20813;-78
2022/05/27 13:07:33;;;;;;;0.90;0.60;;;21.80;99.90;;;;;;5063546;28;20045;-78
2022/05/27 13:10:18;;;;;;;0.70;0.70;;;22.00;99.90;;;;;;5044913;28;20049;-78
2022/05/27 13:12:53;;;;;;;2.33;0.77;;;22.20;99.90;;;;;;5064486;28;20056;-77
2022/05/27 13:15:48;;;;;;;1.95;0.60;;;22.20;99.90;;;;;;5066530;28;20033;-78
2022/05/27 13:18:38;;;;;;;1.42;1.33;;;22.20;99.90;;;;;;5067842;28;20048;-78
2022/05/27 13:21:19;;;;;;;0.60;0.60;;;22.20;99.90;;;;;;5065094;28;20120;-78
2022/05/27 13:23:58;;;;;;;2.63;1.30;;;22.50;99.90;;;;;;5065846;28;20527;-78
2022/05/27 13:26:26;;;;;;;0.65;0.50;;;22.50;99.90;;;;;;5064834;28;20049;-77
2022/05/27 13:28:57;;;;;;;0.98;0.75;;;22.60;99.90;;;;;;5066946;28;20041;-78
2022/05/27 13:31:31;;;;;;;0.60;0.60;;;22.70;99.90;;;;;;5065551;28;21440;-78
2022/05/27 13:34:18;;;;;;;0.50;0.50;;;22.80;99.90;;;;;;5064381;28;20047;-78
2022/05/27 13:37:01;;;;;;;0.63;0.60;;;22.50;99.60;;;;;;5065474;28;20041;-78
2022/05/27 13:39:49;;;;;;;0.85;0.70;;;22.10;99.60;;;;;;5065596;28;20131;-77
2022/05/27 13:42:34;;;;;;;0.60;0.60;;;21.90;99.90;;;;;;5058573;28;20080;-77
2022/05/27 13:45:10;;;;;;;1.00;0.80;;;22.00;99.90;;;;;;5060591;28;20534;-78
2022/05/27 13:47:42;;;;;;;2.88;0.68;;;21.90;99.90;;;;;;5064190;28;20539;-78
2022/05/27 13:50:27;;;;;;;3.13;0.77;;;22.00;99.90;;;;;;5064961;28;20037;-78
2022/05/27 13:52:53;;;;;;;1.35;0.70;;;22.20;99.90;;;;;;5065421;28;20049;-78
2022/05/27 13:55:29;;;;;;;1.45;0.80;;;22.30;99.90;;;;;;5063141;28;20051;-78
2022/05/27 13:58:01;;;;;;;1.00;0.65;;;22.30;99.90;;;;;;5065561;28;20445;-78
2022/05/27 14:00:37;;;;;;;2.17;0.95;;;22.30;99.90;;;;;;5064826;28;20071;-79
2022/05/27 14:03:04;;;;;;;2.10;0.70;;;22.40;99.90;;;;;;5062327;28;20071;-79
2022/05/27 14:05:32;;;;;;;2.63;0.77;;;22.60;99.90;;;;;;5066815;28;20502;-79
2022/05/27 14:08:00;;;;;;;0.93;0.60;;;22.80;99.90;;;;;;5061636;28;20066;-78
2022/05/27 14:10:39;;;;;;;0.70;0.60;;;22.90;99.60;;;;;;5066627;28;20112;-79
2022/05/27 14:13:28;;;;;;;2.78;0.88;;;22.80;99.60;;;;;;5061436;28;20045;-78
2022/05/27 14:15:54;;;;;;;0.98;0.70;;;22.60;99.60;;;;;;5063944;28;20087;-78
2022/05/27 14:18:33;;;;;;;0.60;0.45;;;22.50;99.60;;;;;;5065277;28;20041;-78
2022/05/27 14:23:47;;;;;;;0.80;0.50;;;22.50;99.50;;;;;;5065991;28;20040;-78
2022/05/27 14:26:14;;;;;;;1.52;0.60;;;22.70;99.50;;;;;;5063660;28;20044;-78
2022/05/27 14:28:49;;;;;;;1.45;0.60;;;22.80;99.40;;;;;;5064303;28;20530;-79
2022/05/27 14:31:19;;;;;;;0.68;0.52;;;23.00;99.20;;;;;;5065028;28;20041;-79
2022/05/27 14:33:49;;;;;;;1.42;0.80;;;23.10;99.00;;;;;;5064785;28;20090;-79
2022/05/27 14:36:17;;;;;;;0.88;0.63;;;23.00;98.70;;;;;;5063469;28;20045;-79
2022/05/27 14:38:45;;;;;;;0.50;0.50;;;23.00;98.70;;;;;;5062680;28;20033;-78
2022/05/27 14:41:16;;;;;;;1.40;0.90;;;22.90;98.70;;;;;;5063298;28;20067;-85
2022/05/27 14:43:47;;;;;;;0.60;0.60;;;23.00;98.70;;;;;;5058278;28;20033;-78
2022/05/27 14:46:23;;;;;;;1.02;0.93;;;23.20;98.60;;;;;;5063549;28;20047;-79
2022/05/27 14:48:58;;;;;;;1.15;0.50;;;23.20;98.30;;;;;;5047772;28;20580;-78
2022/05/27 14:51:27;;;;;;;1.08;0.60;;;23.20;97.90;;;;;;5066388;28;20044;-78
2022/05/27 14:53:55;;;;;;;1.17;0.60;;;23.00;97.70;;;;;;5065550;28;20036;-78
2022/05/27 14:56:28;;;;;;;0.68;0.50;;;22.70;97.70;;;;;;5066253;28;20442;-78
2022/05/27 14:59:06;;;;;;;2.47;0.60;;;22.50;97.70;;;;;;5066275;28;20071;-79
2022/05/27 15:01:40;;;;;;;0.52;0.45;;;22.30;97.60;;;;;;5064396;28;20064;-79
2022/05/27 15:04:12;;;;;;;1.42;0.65;;;22.10;97.70;;;;;;5065417;28;20040;-79
2022/05/27 15:06:39;;;;;;;1.80;0.70;;;22.00;97.70;;;;;;5065022;28;20472;-79
2022/05/27 15:09:12;;;;;;;0.25;0.25;;;21.90;97.80;;;;;;5065543;28;20036;-78
2022/05/27 15:11:38;;;;;;;0.90;0.50;;;21.90;97.80;;;;;;5065008;28;20053;-78
2022/05/27 15:14:28;;;;;;;0.45;0.40;;;21.80;98.00;;;;;;5082148;28;20087;-78
2022/05/27 15:17:05;;;;;;;0.63;0.43;;;21.90;97.60;;;;;;5066117;28;20052;-79
2022/05/27 15:19:45;;;;;;;0.52;0.50;;;21.90;97.50;;;;;;5066774;28;20037;-79
2022/05/27 15:22:13;;;;;;;0.28;0.28;;;22.00;97.20;;;;;;5066988;28;20032;-78
2022/05/27 15:25:04;;;;;;;0.70;0.70;;;22.10;96.90;;;;;;5065786;28;20045;-78
2022/05/27 15:33:27;;;;;;;1.02;0.52;;;22.20;96.00;;;;;;5069327;28;20091;-78
2022/05/27 15:35:55;;;;;;;2.00;0.57;;;22.30;95.70;;;;;;5063737;28;20040;-80
2022/05/27 15:38:27;;;;;;;1.17;0.63;;;22.40;95.40;;;;;;5066566;28;20034;-79
2022/05/27 15:40:54;;;;;;;0.50;0.50;;;22.30;95.30;;;;;;5081113;28;20044;-84
2022/05/27 15:43:24;;;;;;;0.43;0.40;;;22.30;95.20;;;;;;5066191;28;20613;-79
2022/05/27 15:45:51;;;;;;;0.60;0.57;;;22.40;94.90;;;;;;5062989;28;20079;-79
2022/05/27 15:48:18;;;;;;;0.60;0.50;;;22.50;94.90;;;;;;5068287;28;20073;-79
2022/05/27 15:50:45;;;;;;;0.70;0.60;;;22.80;94.60;;;;;;5066646;28;20048;-79
2022/05/27 15:53:13;;;;;;;2.00;0.60;;;22.70;94.40;;;;;;5069232;28;20078;-78
2022/05/27 15:55:40;;;;;;;1.23;0.77;;;22.80;94.40;;;;;;5069351;28;20040;-79
2022/05/27 15:58:06;;;;;;;1.05;0.95;;;22.90;94.40;;;;;;5068754;28;20052;-79